Back to Top

Language: 

My Weather Underground Personal Weather Station Historical Data with Graphs...

Delerius Weather Station Historical Data
Daily Summary for February 6, 2017 Units:  Both    English   Metric
« Previous Day
Next Day »
Daily Weekly Monthly Yearly Custom
  High: Low: Average:
Temperature: 43.4 °F /  6.3 °C 27.3 °F /  -2.6 °C 35.4 °F /  1.9 °C
Dew Point: 39.3 °F /  4.1 °C 26.3 °F /  -3.2 °C 33.3 °F /  0.7 °C
Humidity: 98 % 78 % 92 %
Wind Speed: 15.0 mph /  24.1 km/h - 4.7 mph /  7.6 km/h
Wind Gust: 19.0 mph /  30.6 km/h - -
Wind:- - SSE
Pressure: 30.07 in /  1018.2 hPa 29.85 in /  1010.7 hPa -
Precipitation: 0.15 in /  3.81 mm    
Historical Graphs
 
 
Tabular Data for February 6, 2017
Time Temperature Dew Point Pressure Wind Wind Speed Wind Gust Humidity Rainfall Rate (Hourly) solar Conditions
00:00 32.1 °F /  0.1 °C 30.3 °F /  -0.9 °C 29.99 in /  1015.5 hPa Calm   -999.0 mph /  -1607.7 km/h 93 % 0.00 in /  0 mm 0 W/m2
00:05 32.1 °F /  0.1 °C 30.3 °F /  -0.9 °C 29.99 in /  1015.5 hPa Calm   -999.0 mph /  -1607.7 km/h 93 % 0.00 in /  0 mm 0 W/m2
00:10 32.1 °F /  0.1 °C 30.3 °F /  -0.9 °C 29.99 in /  1015.5 hPa Calm   -999.0 mph /  -1607.7 km/h 93 % 0.00 in /  0 mm 0 W/m2
00:15 32.1 °F /  0.1 °C 30.3 °F /  -0.9 °C 29.99 in /  1015.5 hPa Calm   -999.0 mph /  -1607.7 km/h 93 % 0.00 in /  0 mm 0 W/m2
00:20 32.1 °F /  0.1 °C 30.3 °F /  -0.9 °C 29.99 in /  1015.5 hPa Calm   -999.0 mph /  -1607.7 km/h 93 % 0.00 in /  0 mm 0 W/m2
00:25 31.1 °F /  -0.5 °C 29.6 °F /  -1.3 °C 29.99 in /  1015.5 hPa Calm   -999.0 mph /  -1607.7 km/h 94 % 0.00 in /  0 mm 0 W/m2
00:30 31.1 °F /  -0.5 °C 29.6 °F /  -1.3 °C 29.99 in /  1015.5 hPa Calm   -999.0 mph /  -1607.7 km/h 94 % 0.00 in /  0 mm 0 W/m2
00:35 31.1 °F /  -0.5 °C 29.6 °F /  -1.3 °C 29.99 in /  1015.5 hPa Calm   -999.0 mph /  -1607.7 km/h 94 % 0.00 in /  0 mm 0 W/m2
00:40 31.1 °F /  -0.5 °C 29.8 °F /  -1.2 °C 29.99 in /  1015.5 hPa Calm   -999.0 mph /  -1607.7 km/h 95 % 0.00 in /  0 mm 0 W/m2
00:45 31.1 °F /  -0.5 °C 29.8 °F /  -1.2 °C 29.99 in /  1015.5 hPa Calm   -999.0 mph /  -1607.7 km/h 95 % 0.00 in /  0 mm 0 W/m2
00:50 31.1 °F /  -0.5 °C 29.8 °F /  -1.2 °C 29.99 in /  1015.5 hPa Calm   -999.0 mph /  -1607.7 km/h 95 % 0.00 in /  0 mm 0 W/m2
00:55 31.6 °F /  -0.2 °C 30.3 °F /  -0.9 °C 29.99 in /  1015.5 hPa Calm   -999.0 mph /  -1607.7 km/h 95 % 0.00 in /  0 mm 0 W/m2
01:00 31.6 °F /  -0.2 °C 30.3 °F /  -0.9 °C 29.99 in /  1015.5 hPa Calm   -999.0 mph /  -1607.7 km/h 95 % 0.00 in /  0 mm 0 W/m2
01:05 31.6 °F /  -0.2 °C 30.3 °F /  -0.9 °C 29.99 in /  1015.5 hPa Calm   -999.0 mph /  -1607.7 km/h 95 % 0.00 in /  0 mm 0 W/m2
01:10 31.7 °F /  -0.2 °C 30.4 °F /  -0.9 °C 30.00 in /  1015.8 hPa Calm   -999.0 mph /  -1607.7 km/h 95 % 0.00 in /  0 mm 0 W/m2
01:15 31.7 °F /  -0.2 °C 30.4 °F /  -0.9 °C 30.00 in /  1015.8 hPa Calm   -999.0 mph /  -1607.7 km/h 95 % 0.00 in /  0 mm 0 W/m2
01:20 31.7 °F /  -0.2 °C 30.4 °F /  -0.9 °C 30.00 in /  1015.8 hPa Calm   -999.0 mph /  -1607.7 km/h 95 % 0.00 in /  0 mm 0 W/m2
01:25 31.4 °F /  -0.3 °C 30.1 °F /  -1.1 °C 30.01 in /  1016.1 hPa Calm   -999.0 mph /  -1607.7 km/h 95 % 0.00 in /  0 mm 0 W/m2
01:30 31.4 °F /  -0.3 °C 30.1 °F /  -1.1 °C 30.01 in /  1016.1 hPa Calm   -999.0 mph /  -1607.7 km/h 95 % 0.00 in /  0 mm 0 W/m2
01:35 31.4 °F /  -0.3 °C 30.1 °F /  -1.1 °C 30.01 in /  1016.1 hPa Calm   -999.0 mph /  -1607.7 km/h 95 % 0.00 in /  0 mm 0 W/m2
01:40 31.4 °F /  -0.3 °C 30.4 °F /  -0.9 °C 30.02 in /  1016.5 hPa Calm   -999.0 mph /  -1607.7 km/h 96 % 0.00 in /  0 mm 0 W/m2
01:45 31.4 °F /  -0.3 °C 30.4 °F /  -0.9 °C 30.02 in /  1016.5 hPa Calm   -999.0 mph /  -1607.7 km/h 96 % 0.00 in /  0 mm 0 W/m2
01:50 31.4 °F /  -0.3 °C 30.4 °F /  -0.9 °C 30.02 in /  1016.5 hPa Calm   -999.0 mph /  -1607.7 km/h 96 % 0.00 in /  0 mm 0 W/m2
01:55 31.7 °F /  -0.2 °C 30.7 °F /  -0.7 °C 30.02 in /  1016.5 hPa Calm   -999.0 mph /  -1607.7 km/h 96 % 0.00 in /  0 mm 0 W/m2
02:00 31.7 °F /  -0.2 °C 30.7 °F /  -0.7 °C 30.02 in /  1016.5 hPa Calm   -999.0 mph /  -1607.7 km/h 96 % 0.00 in /  0 mm 0 W/m2
02:05 31.7 °F /  -0.2 °C 30.7 °F /  -0.7 °C 30.02 in /  1016.5 hPa Calm   -999.0 mph /  -1607.7 km/h 96 % 0.00 in /  0 mm 0 W/m2
02:10 31.8 °F /  -0.1 °C 30.8 °F /  -0.7 °C 30.01 in /  1016.1 hPa Calm   -999.0 mph /  -1607.7 km/h 96 % 0.00 in /  0 mm 0 W/m2
02:15 31.8 °F /  -0.1 °C 30.8 °F /  -0.7 °C 30.01 in /  1016.1 hPa Calm   -999.0 mph /  -1607.7 km/h 96 % 0.00 in /  0 mm 0 W/m2
02:20 31.8 °F /  -0.1 °C 30.8 °F /  -0.7 °C 30.01 in /  1016.1 hPa Calm   -999.0 mph /  -1607.7 km/h 96 % 0.00 in /  0 mm 0 W/m2
02:25 31.5 °F /  -0.3 °C 30.2 °F /  -1 °C 30.01 in /  1016.1 hPa Calm   -999.0 mph /  -1607.7 km/h 95 % 0.00 in /  0 mm 0 W/m2
02:30 31.5 °F /  -0.3 °C 30.2 °F /  -1 °C 30.01 in /  1016.1 hPa Calm   -999.0 mph /  -1607.7 km/h 95 % 0.00 in /  0 mm 0 W/m2
02:35 31.5 °F /  -0.3 °C 30.2 °F /  -1 °C 30.01 in /  1016.1 hPa Calm   -999.0 mph /  -1607.7 km/h 95 % 0.00 in /  0 mm 0 W/m2
02:40 31.2 °F /  -0.4 °C 30.2 °F /  -1 °C 30.01 in /  1016.1 hPa Calm   -999.0 mph /  -1607.7 km/h 96 % 0.00 in /  0 mm 0 W/m2
02:45 31.2 °F /  -0.4 °C 30.2 °F /  -1 °C 30.01 in /  1016.1 hPa Calm   -999.0 mph /  -1607.7 km/h 96 % 0.00 in /  0 mm 0 W/m2
02:50 31.2 °F /  -0.4 °C 30.2 °F /  -1 °C 30.01 in /  1016.1 hPa Calm   -999.0 mph /  -1607.7 km/h 96 % 0.00 in /  0 mm 0 W/m2
02:55 31.0 °F /  -0.6 °C 30.0 °F /  -1.1 °C 30.02 in /  1016.5 hPa Calm   -999.0 mph /  -1607.7 km/h 96 % 0.00 in /  0 mm 0 W/m2
03:00 31.0 °F /  -0.6 °C 30.0 °F /  -1.1 °C 30.02 in /  1016.5 hPa Calm   -999.0 mph /  -1607.7 km/h 96 % 0.00 in /  0 mm 0 W/m2
03:05 31.0 °F /  -0.6 °C 30.0 °F /  -1.1 °C 30.02 in /  1016.5 hPa Calm   -999.0 mph /  -1607.7 km/h 96 % 0.00 in /  0 mm 0 W/m2
03:10 30.7 °F /  -0.7 °C 29.7 °F /  -1.3 °C 30.02 in /  1016.5 hPa Calm   -999.0 mph /  -1607.7 km/h 96 % 0.00 in /  0 mm 0 W/m2
03:15 30.7 °F /  -0.7 °C 29.7 °F /  -1.3 °C 30.02 in /  1016.5 hPa Calm   -999.0 mph /  -1607.7 km/h 96 % 0.00 in /  0 mm 0 W/m2
03:20 30.7 °F /  -0.7 °C 29.7 °F /  -1.3 °C 30.02 in /  1016.5 hPa Calm   -999.0 mph /  -1607.7 km/h 96 % 0.00 in /  0 mm 0 W/m2
03:25 30.7 °F /  -0.7 °C 29.7 °F /  -1.3 °C 30.03 in /  1016.8 hPa Calm   -999.0 mph /  -1607.7 km/h 96 % 0.00 in /  0 mm 0 W/m2
03:30 30.7 °F /  -0.7 °C 29.7 °F /  -1.3 °C 30.03 in /  1016.8 hPa Calm   -999.0 mph /  -1607.7 km/h 96 % 0.00 in /  0 mm 0 W/m2
03:35 30.7 °F /  -0.7 °C 29.7 °F /  -1.3 °C 30.03 in /  1016.8 hPa Calm   -999.0 mph /  -1607.7 km/h 96 % 0.00 in /  0 mm 0 W/m2
03:40 30.6 °F /  -0.8 °C 29.6 °F /  -1.3 °C 30.03 in /  1016.8 hPa Calm   -999.0 mph /  -1607.7 km/h 96 % 0.00 in /  0 mm 0 W/m2
03:45 30.6 °F /  -0.8 °C 29.6 °F /  -1.3 °C 30.03 in /  1016.8 hPa Calm   -999.0 mph /  -1607.7 km/h 96 % 0.00 in /  0 mm 0 W/m2
03:50 30.6 °F /  -0.8 °C 29.6 °F /  -1.3 °C 30.03 in /  1016.8 hPa Calm   -999.0 mph /  -1607.7 km/h 96 % 0.00 in /  0 mm 0 W/m2
03:55 30.2 °F /  -1 °C 29.2 °F /  -1.6 °C 30.04 in /  1017.2 hPa Calm   -999.0 mph /  -1607.7 km/h 96 % 0.00 in /  0 mm 0 W/m2
04:00 30.2 °F /  -1 °C 29.2 °F /  -1.6 °C 30.04 in /  1017.2 hPa Calm   -999.0 mph /  -1607.7 km/h 96 % 0.00 in /  0 mm 0 W/m2
04:05 30.2 °F /  -1 °C 29.2 °F /  -1.6 °C 30.04 in /  1017.2 hPa Calm   -999.0 mph /  -1607.7 km/h 96 % 0.00 in /  0 mm 0 W/m2
04:10 29.9 °F /  -1.2 °C 28.9 °F /  -1.7 °C 30.04 in /  1017.2 hPa Calm   -999.0 mph /  -1607.7 km/h 96 % 0.00 in /  0 mm 0 W/m2
04:15 29.9 °F /  -1.2 °C 28.9 °F /  -1.7 °C 30.04 in /  1017.2 hPa Calm   -999.0 mph /  -1607.7 km/h 96 % 0.00 in /  0 mm 0 W/m2
04:20 29.9 °F /  -1.2 °C 28.9 °F /  -1.7 °C 30.04 in /  1017.2 hPa Calm   -999.0 mph /  -1607.7 km/h 96 % 0.00 in /  0 mm 0 W/m2
04:25 30.2 °F /  -1 °C 29.2 °F /  -1.6 °C 30.04 in /  1017.2 hPa Calm   -999.0 mph /  -1607.7 km/h 96 % 0.00 in /  0 mm 0 W/m2
04:30 30.2 °F /  -1 °C 29.2 °F /  -1.6 °C 30.04 in /  1017.2 hPa Calm   -999.0 mph /  -1607.7 km/h 96 % 0.00 in /  0 mm 0 W/m2
04:35 30.2 °F /  -1 °C 29.2 °F /  -1.6 °C 30.04 in /  1017.2 hPa Calm   -999.0 mph /  -1607.7 km/h 96 % 0.00 in /  0 mm 0 W/m2
04:40 30.0 °F /  -1.1 °C 29.0 °F /  -1.7 °C 30.04 in /  1017.2 hPa Calm   -999.0 mph /  -1607.7 km/h 96 % 0.00 in /  0 mm 0 W/m2
04:45 30.0 °F /  -1.1 °C 29.0 °F /  -1.7 °C 30.04 in /  1017.2 hPa Calm   -999.0 mph /  -1607.7 km/h 96 % 0.00 in /  0 mm 0 W/m2
04:50 30.0 °F /  -1.1 °C 29.0 °F /  -1.7 °C 30.04 in /  1017.2 hPa Calm   -999.0 mph /  -1607.7 km/h 96 % 0.00 in /  0 mm 0 W/m2
04:55 29.4 °F /  -1.4 °C 28.4 °F /  -2 °C 30.05 in /  1017.5 hPa Calm   -999.0 mph /  -1607.7 km/h 96 % 0.00 in /  0 mm 0 W/m2
05:00 29.4 °F /  -1.4 °C 28.4 °F /  -2 °C 30.05 in /  1017.5 hPa Calm   -999.0 mph /  -1607.7 km/h 96 % 0.00 in /  0 mm 0 W/m2
05:05 29.4 °F /  -1.4 °C 28.4 °F /  -2 °C 30.05 in /  1017.5 hPa Calm   -999.0 mph /  -1607.7 km/h 96 % 0.00 in /  0 mm 0 W/m2
05:10 29.1 °F /  -1.6 °C 28.1 °F /  -2.2 °C 30.05 in /  1017.5 hPa Calm   -999.0 mph /  -1607.7 km/h 96 % 0.00 in /  0 mm 0 W/m2
05:15 29.1 °F /  -1.6 °C 28.1 °F /  -2.2 °C 30.05 in /  1017.5 hPa Calm   -999.0 mph /  -1607.7 km/h 96 % 0.00 in /  0 mm 0 W/m2
05:20 29.1 °F /  -1.6 °C 28.1 °F /  -2.2 °C 30.05 in /  1017.5 hPa Calm   -999.0 mph /  -1607.7 km/h 96 % 0.00 in /  0 mm 0 W/m2
05:25 28.8 °F /  -1.8 °C 27.8 °F /  -2.3 °C 30.06 in /  1017.8 hPa Calm   -999.0 mph /  -1607.7 km/h 96 % 0.00 in /  0 mm 0 W/m2
05:30 28.8 °F /  -1.8 °C 27.8 °F /  -2.3 °C 30.06 in /  1017.8 hPa Calm   -999.0 mph /  -1607.7 km/h 96 % 0.00 in /  0 mm 0 W/m2
05:35 28.8 °F /  -1.8 °C 27.8 °F /  -2.3 °C 30.06 in /  1017.8 hPa Calm   -999.0 mph /  -1607.7 km/h 96 % 0.00 in /  0 mm 0 W/m2
05:40 28.2 °F /  -2.1 °C 27.2 °F /  -2.7 °C 30.06 in /  1017.8 hPa Calm   -999.0 mph /  -1607.7 km/h 96 % 0.00 in /  0 mm 0 W/m2
05:45 28.2 °F /  -2.1 °C 27.2 °F /  -2.7 °C 30.06 in /  1017.8 hPa Calm   -999.0 mph /  -1607.7 km/h 96 % 0.00 in /  0 mm 0 W/m2
05:50 28.2 °F /  -2.1 °C 27.2 °F /  -2.7 °C 30.06 in /  1017.8 hPa Calm   -999.0 mph /  -1607.7 km/h 96 % 0.00 in /  0 mm 0 W/m2
05:55 28.2 °F /  -2.1 °C 27.2 °F /  -2.7 °C 30.06 in /  1017.8 hPa Calm   -999.0 mph /  -1607.7 km/h 96 % 0.00 in /  0 mm 0 W/m2
06:00 28.2 °F /  -2.1 °C 27.2 °F /  -2.7 °C 30.06 in /  1017.8 hPa Calm   -999.0 mph /  -1607.7 km/h 96 % 0.00 in /  0 mm 0 W/m2
06:05 28.2 °F /  -2.1 °C 27.2 °F /  -2.7 °C 30.06 in /  1017.8 hPa Calm   -999.0 mph /  -1607.7 km/h 96 % 0.00 in /  0 mm 0 W/m2
06:10 28.4 °F /  -2 °C 27.4 °F /  -2.6 °C 30.06 in /  1017.8 hPa Calm   -999.0 mph /  -1607.7 km/h 96 % 0.00 in /  0 mm 0 W/m2
06:15 28.4 °F /  -2 °C 27.4 °F /  -2.6 °C 30.06 in /  1017.8 hPa Calm   -999.0 mph /  -1607.7 km/h 96 % 0.00 in /  0 mm 0 W/m2
06:20 28.4 °F /  -2 °C 27.4 °F /  -2.6 °C 30.06 in /  1017.8 hPa Calm   -999.0 mph /  -1607.7 km/h 96 % 0.00 in /  0 mm 0 W/m2
06:25 28.3 °F /  -2.1 °C 27.3 °F /  -2.6 °C 30.05 in /  1017.5 hPa Calm   -999.0 mph /  -1607.7 km/h 96 % 0.00 in /  0 mm 0 W/m2
06:30 28.3 °F /  -2.1 °C 27.3 °F /  -2.6 °C 30.05 in /  1017.5 hPa Calm   -999.0 mph /  -1607.7 km/h 96 % 0.00 in /  0 mm 0 W/m2
06:35 28.3 °F /  -2.1 °C 27.3 °F /  -2.6 °C 30.05 in /  1017.5 hPa Calm   -999.0 mph /  -1607.7 km/h 96 % 0.00 in /  0 mm 0 W/m2
06:40 27.9 °F /  -2.3 °C 26.9 °F /  -2.8 °C 30.05 in /  1017.5 hPa Calm     96 % 0.00 in /  0 mm 0 W/m2
06:45 27.7 °F /  -2.4 °C 26.7 °F /  -2.9 °C 30.05 in /  1017.5 hPa Calm     96 % 0.00 in /  0 mm 0 W/m2
06:50 27.5 °F /  -2.5 °C 26.5 °F /  -3.1 °C 30.05 in /  1017.5 hPa Calm     96 % 0.00 in /  0 mm 0 W/m2
06:55 27.5 °F /  -2.5 °C 26.5 °F /  -3.1 °C 30.05 in /  1017.5 hPa Calm     96 % 0.00 in /  0 mm 0 W/m2
07:00 27.6 °F /  -2.4 °C 26.6 °F /  -3 °C 30.05 in /  1017.5 hPa Calm     96 % 0.00 in /  0 mm 0 W/m2
07:05 27.8 °F /  -2.3 °C 27.1 °F /  -2.7 °C 30.05 in /  1017.5 hPa Calm     97 % 0.00 in /  0 mm 0 W/m2
07:10 27.7 °F /  -2.4 °C 26.7 °F /  -2.9 °C 30.05 in /  1017.5 hPa Calm   -999.0 mph /  -1607.7 km/h 96 % 0.00 in /  0 mm 0 W/m2
07:15 27.6 °F /  -2.4 °C 26.6 °F /  -3 °C 30.05 in /  1017.5 hPa Calm     96 % 0.00 in /  0 mm 0 W/m2
07:20 27.6 °F /  -2.4 °C 26.6 °F /  -3 °C 30.05 in /  1017.5 hPa Calm     96 % 0.00 in /  0 mm 0 W/m2
07:25 27.6 °F /  -2.4 °C 26.9 °F /  -2.8 °C 30.05 in /  1017.5 hPa Calm     97 % 0.00 in /  0 mm 0 W/m2
07:30 27.6 °F /  -2.4 °C 26.9 °F /  -2.8 °C 30.05 in /  1017.5 hPa Calm     97 % 0.00 in /  0 mm 0 W/m2
07:35 27.6 °F /  -2.4 °C 26.6 °F /  -3 °C 30.05 in /  1017.5 hPa Calm     96 % 0.00 in /  0 mm 5 W/m2
07:40 27.5 °F /  -2.5 °C 26.5 °F /  -3.1 °C 30.06 in /  1017.8 hPa Calm     96 % 0.00 in /  0 mm 5 W/m2
07:50 27.3 °F /  -2.6 °C 26.3 °F /  -3.2 °C 30.06 in /  1017.8 hPa Calm     96 % 0.00 in /  0 mm 9 W/m2
07:55 27.4 °F /  -2.6 °C 26.4 °F /  -3.1 °C 30.06 in /  1017.8 hPa Calm     96 % 0.00 in /  0 mm 12 W/m2
08:00 27.4 °F /  -2.6 °C 26.4 °F /  -3.1 °C 30.06 in /  1017.8 hPa Calm     96 % 0.00 in /  0 mm 14 W/m2
08:05 27.6 °F /  -2.4 °C 26.9 °F /  -2.8 °C 30.06 in /  1017.8 hPa Calm     97 % 0.00 in /  0 mm 14 W/m2
08:10 27.7 °F /  -2.4 °C 27.0 °F /  -2.8 °C 30.06 in /  1017.8 hPa Calm     97 % 0.00 in /  0 mm 18 W/m2
08:20 27.8 °F /  -2.3 °C 27.1 °F /  -2.7 °C 30.06 in /  1017.8 hPa Calm     97 % 0.00 in /  0 mm 33 W/m2
08:25 28.0 °F /  -2.2 °C 27.3 °F /  -2.6 °C 30.06 in /  1017.8 hPa Calm     97 % 0.00 in /  0 mm 37 W/m2
08:30 28.2 °F /  -2.1 °C 27.5 °F /  -2.5 °C 30.06 in /  1017.8 hPa Calm     97 % 0.00 in /  0 mm 37 W/m2
08:35 28.3 °F /  -2.1 °C 27.6 °F /  -2.4 °C 30.06 in /  1017.8 hPa Calm     97 % 0.00 in /  0 mm 35 W/m2
08:40 28.4 °F /  -2 °C 27.7 °F /  -2.4 °C 30.06 in /  1017.8 hPa Calm     97 % 0.00 in /  0 mm 40 W/m2
08:45 28.4 °F /  -2 °C 27.7 °F /  -2.4 °C 30.06 in /  1017.8 hPa Calm     97 % 0.00 in /  0 mm 51 W/m2
08:55 28.8 °F /  -1.8 °C 28.1 °F /  -2.2 °C 30.06 in /  1017.8 hPa Calm     97 % 0.00 in /  0 mm 83 W/m2
09:00 29.2 °F /  -1.6 °C 28.5 °F /  -1.9 °C 30.06 in /  1017.8 hPa Calm     97 % 0.00 in /  0 mm 91 W/m2
09:05 29.5 °F /  -1.4 °C 28.8 °F /  -1.8 °C 30.06 in /  1017.8 hPa Calm     97 % 0.00 in /  0 mm 118 W/m2
09:10 29.8 °F /  -1.2 °C 29.1 °F /  -1.6 °C 30.06 in /  1017.8 hPa Calm     97 % 0.00 in /  0 mm 90 W/m2
09:15 30.1 °F /  -1.1 °C 29.4 °F /  -1.4 °C 30.06 in /  1017.8 hPa Calm     97 % 0.00 in /  0 mm 70 W/m2
09:25 30.8 °F /  -0.7 °C 30.0 °F /  -1.1 °C 30.06 in /  1017.8 hPa Calm     97 % 0.00 in /  0 mm 65 W/m2
09:30 31.0 °F /  -0.6 °C 30.5 °F /  -0.8 °C 30.07 in /  1018.2 hPa Calm     98 % 0.00 in /  0 mm 127 W/m2
09:35 31.2 °F /  -0.4 °C 30.4 °F /  -0.9 °C 30.07 in /  1018.2 hPa Calm     97 % 0.00 in /  0 mm 232 W/m2
09:40 31.7 °F /  -0.2 °C 30.9 °F /  -0.6 °C 30.07 in /  1018.2 hPa Calm     97 % 0.00 in /  0 mm 202 W/m2
09:45 32.1 °F /  0.1 °C 31.6 °F /  -0.2 °C 30.07 in /  1018.2 hPa Calm     98 % 0.00 in /  0 mm 243 W/m2
09:50 32.6 °F /  0.3 °C 31.8 °F /  -0.1 °C 30.06 in /  1017.8 hPa Calm     97 % 0.00 in /  0 mm 250 W/m2
10:00 33.9 °F /  1.1 °C 33.4 °F /  0.8 °C 30.06 in /  1017.8 hPa Calm     98 % 0.00 in /  0 mm 290 W/m2
10:05 34.8 °F /  1.6 °C 34.3 °F /  1.3 °C 30.06 in /  1017.8 hPa Calm     98 % 0.00 in /  0 mm 294 W/m2
10:10 35.5 °F /  1.9 °C 35.0 °F /  1.7 °C 30.06 in /  1017.8 hPa Calm     98 % 0.00 in /  0 mm 185 W/m2
10:15 36.0 °F /  2.2 °C 35.5 °F /  1.9 °C 30.06 in /  1017.8 hPa Calm   2.0 mph /  3.2 km/h 98 % 0.00 in /  0 mm 163 W/m2
10:20 36.2 °F /  2.3 °C 35.7 °F /  2.1 °C 30.06 in /  1017.8 hPa SE 1.0 mph /  1.6 km/h 2.0 mph /  3.2 km/h 98 % 0.00 in /  0 mm 169 W/m2
10:30 36.7 °F /  2.6 °C 35.9 °F /  2.2 °C 30.05 in /  1017.5 hPa ESE 2.0 mph /  3.2 km/h 2.0 mph /  3.2 km/h 97 % 0.00 in /  0 mm 172 W/m2
10:35 36.9 °F /  2.7 °C 36.1 °F /  2.3 °C 30.06 in /  1017.8 hPa ESE 1.0 mph /  1.6 km/h 2.0 mph /  3.2 km/h 97 % 0.00 in /  0 mm 214 W/m2
10:40 37.2 °F /  2.9 °C 36.4 °F /  2.4 °C 30.05 in /  1017.5 hPa Calm     97 % 0.00 in /  0 mm 197 W/m2
10:45 37.6 °F /  3.1 °C 36.8 °F /  2.7 °C 30.06 in /  1017.8 hPa ESE 1.0 mph /  1.6 km/h 1.0 mph /  1.6 km/h 97 % 0.00 in /  0 mm 171 W/m2
10:50 37.8 °F /  3.2 °C 37.0 °F /  2.8 °C 30.06 in /  1017.8 hPa Calm   1.0 mph /  1.6 km/h 97 % 0.00 in /  0 mm 165 W/m2
10:55 37.8 °F /  3.2 °C 36.8 °F /  2.7 °C 30.05 in /  1017.5 hPa ESE 1.0 mph /  1.6 km/h 1.0 mph /  1.6 km/h 96 % 0.00 in /  0 mm 160 W/m2
11:05 37.8 °F /  3.2 °C 36.5 °F /  2.5 °C 30.05 in /  1017.5 hPa East 1.0 mph /  1.6 km/h 3.0 mph /  4.8 km/h 95 % 0.00 in /  0 mm 144 W/m2
11:10 37.9 °F /  3.3 °C 36.6 °F /  2.6 °C 30.05 in /  1017.5 hPa East 1.0 mph /  1.6 km/h 1.0 mph /  1.6 km/h 95 % 0.00 in /  0 mm 316 W/m2
11:15 38.5 °F /  3.6 °C 37.5 °F /  3.1 °C 30.05 in /  1017.5 hPa Calm   2.0 mph /  3.2 km/h 96 % 0.00 in /  0 mm 390 W/m2
11:20 39.2 °F /  4 °C 37.9 °F /  3.3 °C 30.05 in /  1017.5 hPa East 1.0 mph /  1.6 km/h 2.0 mph /  3.2 km/h 95 % 0.00 in /  0 mm 410 W/m2
11:25 39.9 °F /  4.4 °C 38.6 °F /  3.7 °C 30.05 in /  1017.5 hPa East 1.0 mph /  1.6 km/h 2.0 mph /  3.2 km/h 95 % 0.00 in /  0 mm 399 W/m2
11:35 41.0 °F /  5 °C 39.1 °F /  3.9 °C 30.05 in /  1017.5 hPa South 5.0 mph /  8 km/h 6.0 mph /  9.7 km/h 93 % 0.00 in /  0 mm 394 W/m2
11:40 41.5 °F /  5.3 °C 39.3 °F /  4.1 °C 30.05 in /  1017.5 hPa SSE 5.0 mph /  8 km/h 6.0 mph /  9.7 km/h 92 % 0.00 in /  0 mm 388 W/m2
11:45 41.8 °F /  5.4 °C 39.1 °F /  3.9 °C 30.04 in /  1017.2 hPa SSE 6.0 mph /  9.7 km/h 6.0 mph /  9.7 km/h 90 % 0.00 in /  0 mm 401 W/m2
11:50 42.0 °F /  5.6 °C 39.0 °F /  3.9 °C 30.04 in /  1017.2 hPa SSE 6.0 mph /  9.7 km/h 6.0 mph /  9.7 km/h 89 % 0.00 in /  0 mm 132 W/m2
11:55 41.8 °F /  5.4 °C 38.8 °F /  3.8 °C 30.04 in /  1017.2 hPa SE 6.0 mph /  9.7 km/h 9.0 mph /  14.5 km/h 89 % 0.00 in /  0 mm 125 W/m2
12:00 41.7 °F /  5.4 °C 38.7 °F /  3.7 °C 30.04 in /  1017.2 hPa SE 6.0 mph /  9.7 km/h 6.0 mph /  9.7 km/h 89 % 0.00 in /  0 mm 448 W/m2
12:10 42.2 °F /  5.7 °C 38.9 °F /  3.8 °C 30.04 in /  1017.2 hPa SSE 6.0 mph /  9.7 km/h 10.0 mph /  16.1 km/h 88 % 0.00 in /  0 mm 141 W/m2
12:15 42.0 °F /  5.6 °C 38.4 °F /  3.6 °C 30.04 in /  1017.2 hPa SE 7.0 mph /  11.3 km/h 10.0 mph /  16.1 km/h 87 % 0.00 in /  0 mm 171 W/m2
12:20 41.8 °F /  5.4 °C 38.2 °F /  3.4 °C 30.03 in /  1016.8 hPa South 8.0 mph /  12.9 km/h 8.0 mph /  12.9 km/h 87 % 0.00 in /  0 mm 171 W/m2
12:25 42.0 °F /  5.6 °C 38.7 °F /  3.7 °C 30.02 in /  1016.5 hPa SE 6.0 mph /  9.7 km/h 10.0 mph /  16.1 km/h 88 % 0.00 in /  0 mm 397 W/m2
12:30 42.1 °F /  5.6 °C 38.2 °F /  3.4 °C 30.02 in /  1016.5 hPa SSE 7.0 mph /  11.3 km/h 7.0 mph /  11.3 km/h 86 % 0.00 in /  0 mm 211 W/m2
12:40 42.3 °F /  5.7 °C 38.4 °F /  3.6 °C 30.02 in /  1016.5 hPa SSW 7.0 mph /  11.3 km/h 9.0 mph /  14.5 km/h 86 % 0.00 in /  0 mm 241 W/m2
12:45 42.6 °F /  5.9 °C 38.7 °F /  3.7 °C 30.02 in /  1016.5 hPa South 7.0 mph /  11.3 km/h 10.0 mph /  16.1 km/h 86 % 0.00 in /  0 mm 243 W/m2
12:50 42.8 °F /  6 °C 38.6 °F /  3.7 °C 30.02 in /  1016.5 hPa SSE 7.0 mph /  11.3 km/h 7.0 mph /  11.3 km/h 85 % 0.00 in /  0 mm 287 W/m2
12:55 43.1 °F /  6.2 °C 38.6 °F /  3.7 °C 30.01 in /  1016.1 hPa SSE 8.0 mph /  12.9 km/h 8.0 mph /  12.9 km/h 84 % 0.00 in /  0 mm 301 W/m2
13:00 43.3 °F /  6.3 °C 38.5 °F /  3.6 °C 30.01 in /  1016.1 hPa SE 9.0 mph /  14.5 km/h 10.0 mph /  16.1 km/h 83 % 0.00 in /  0 mm 251 W/m2
13:05 43.4 °F /  6.3 °C 38.6 °F /  3.7 °C 30.01 in /  1016.1 hPa SSE 9.0 mph /  14.5 km/h 10.0 mph /  16.1 km/h 83 % 0.00 in /  0 mm 181 W/m2
13:15 43.3 °F /  6.3 °C 37.9 °F /  3.3 °C 30.00 in /  1015.8 hPa South 11.0 mph /  17.7 km/h 11.0 mph /  17.7 km/h 81 % 0.00 in /  0 mm 193 W/m2
13:20 43.2 °F /  6.2 °C 37.8 °F /  3.2 °C 30.00 in /  1015.8 hPa SSE 12.0 mph /  19.3 km/h 12.0 mph /  19.3 km/h 81 % 0.00 in /  0 mm 213 W/m2
13:25 43.2 °F /  6.2 °C 37.8 °F /  3.2 °C 30.00 in /  1015.8 hPa South 10.0 mph /  16.1 km/h 12.0 mph /  19.3 km/h 81 % 0.00 in /  0 mm 128 W/m2
13:30 43.2 °F /  6.2 °C 37.8 °F /  3.2 °C 29.99 in /  1015.5 hPa SSE 9.0 mph /  14.5 km/h 10.0 mph /  16.1 km/h 81 % 0.00 in /  0 mm 121 W/m2
13:35 43.0 °F /  6.1 °C 37.6 °F /  3.1 °C 29.98 in /  1015.1 hPa South 10.0 mph /  16.1 km/h 10.0 mph /  16.1 km/h 81 % 0.00 in /  0 mm 134 W/m2
13:45 42.8 °F /  6 °C 37.4 °F /  3 °C 29.98 in /  1015.1 hPa South 11.0 mph /  17.7 km/h 13.0 mph /  20.9 km/h 81 % 0.00 in /  0 mm 109 W/m2
13:50 42.7 °F /  5.9 °C 37.3 °F /  2.9 °C 29.98 in /  1015.1 hPa SSE 11.0 mph /  17.7 km/h 13.0 mph /  20.9 km/h 81 % 0.00 in /  0 mm 120 W/m2
13:55 42.7 °F /  5.9 °C 37.3 °F /  2.9 °C 29.98 in /  1015.1 hPa South 10.0 mph /  16.1 km/h 13.0 mph /  20.9 km/h 81 % 0.00 in /  0 mm 134 W/m2
14:00 42.8 °F /  6 °C 37.4 °F /  3 °C 29.98 in /  1015.1 hPa SE 9.0 mph /  14.5 km/h 9.0 mph /  14.5 km/h 81 % 0.00 in /  0 mm 137 W/m2
14:05 42.9 °F /  6.1 °C 37.8 °F /  3.2 °C 29.97 in /  1014.8 hPa SSE 8.0 mph /  12.9 km/h 10.0 mph /  16.1 km/h 82 % 0.00 in /  0 mm 127 W/m2
14:10 42.9 °F /  6.1 °C 37.5 °F /  3.1 °C 29.97 in /  1014.8 hPa South 8.0 mph /  12.9 km/h 10.0 mph /  16.1 km/h 81 % 0.00 in /  0 mm 125 W/m2
14:20 42.9 °F /  6.1 °C 37.5 °F /  3.1 °C 29.97 in /  1014.8 hPa SSE 10.0 mph /  16.1 km/h 10.0 mph /  16.1 km/h 81 % 0.00 in /  0 mm 107 W/m2
14:25 43.0 °F /  6.1 °C 37.6 °F /  3.1 °C 29.97 in /  1014.8 hPa SSE 8.0 mph /  12.9 km/h 10.0 mph /  16.1 km/h 81 % 0.00 in /  0 mm 113 W/m2
14:30 42.9 °F /  6.1 °C 37.2 °F /  2.9 °C 29.97 in /  1014.8 hPa South 10.0 mph /  16.1 km/h 10.0 mph /  16.1 km/h 80 % 0.00 in /  0 mm 102 W/m2
14:35 42.9 °F /  6.1 °C 37.5 °F /  3.1 °C 29.97 in /  1014.8 hPa SSW 11.0 mph /  17.7 km/h 11.0 mph /  17.7 km/h 81 % 0.00 in /  0 mm 90 W/m2
14:40 42.9 °F /  6.1 °C 37.5 °F /  3.1 °C 29.97 in /  1014.8 hPa South 8.0 mph /  12.9 km/h 8.0 mph /  12.9 km/h 81 % 0.00 in /  0 mm 86 W/m2
14:50 43.0 °F /  6.1 °C 37.9 °F /  3.3 °C 29.97 in /  1014.8 hPa SSE 7.0 mph /  11.3 km/h 13.0 mph /  20.9 km/h 82 % 0.00 in /  0 mm 86 W/m2
14:55 43.0 °F /  6.1 °C 37.6 °F /  3.1 °C 29.97 in /  1014.8 hPa SSE 7.0 mph /  11.3 km/h 13.0 mph /  20.9 km/h 81 % 0.00 in /  0 mm 90 W/m2
15:00 43.0 °F /  6.1 °C 37.6 °F /  3.1 °C 29.97 in /  1014.8 hPa SSE 8.0 mph /  12.9 km/h 10.0 mph /  16.1 km/h 81 % 0.00 in /  0 mm 77 W/m2
15:05 43.0 °F /  6.1 °C 37.3 °F /  2.9 °C 29.97 in /  1014.8 hPa SSE 8.0 mph /  12.9 km/h 10.0 mph /  16.1 km/h 80 % 0.00 in /  0 mm 62 W/m2
15:10 43.0 °F /  6.1 °C 37.3 °F /  2.9 °C 29.96 in /  1014.4 hPa SE 9.0 mph /  14.5 km/h 16.0 mph /  25.7 km/h 80 % 0.00 in /  0 mm 67 W/m2
15:15 43.0 °F /  6.1 °C 37.6 °F /  3.1 °C 29.96 in /  1014.4 hPa SE 9.0 mph /  14.5 km/h 16.0 mph /  25.7 km/h 81 % 0.00 in /  0 mm 77 W/m2
15:25 42.9 °F /  6.1 °C 37.5 °F /  3.1 °C 29.96 in /  1014.4 hPa SE 10.0 mph /  16.1 km/h 12.0 mph /  19.3 km/h 81 % 0.00 in /  0 mm 74 W/m2
15:30 42.9 °F /  6.1 °C 37.2 °F /  2.9 °C 29.95 in /  1014.1 hPa SE 11.0 mph /  17.7 km/h 12.0 mph /  19.3 km/h 80 % 0.00 in /  0 mm 72 W/m2
15:35 42.9 °F /  6.1 °C 37.5 °F /  3.1 °C 29.95 in /  1014.1 hPa ESE 11.0 mph /  17.7 km/h 12.0 mph /  19.3 km/h 81 % 0.00 in /  0 mm 63 W/m2
15:40 42.9 °F /  6.1 °C 37.5 °F /  3.1 °C 29.95 in /  1014.1 hPa SE 10.0 mph /  16.1 km/h 13.0 mph /  20.9 km/h 81 % 0.00 in /  0 mm 51 W/m2
15:45 42.8 °F /  6 °C 37.4 °F /  3 °C 29.95 in /  1014.1 hPa SSE 10.0 mph /  16.1 km/h 13.0 mph /  20.9 km/h 81 % 0.00 in /  0 mm 40 W/m2
15:55 42.7 °F /  5.9 °C 37.0 °F /  2.8 °C 29.95 in /  1014.1 hPa South 9.0 mph /  14.5 km/h 13.0 mph /  20.9 km/h 80 % 0.00 in /  0 mm 23 W/m2
16:00 42.6 °F /  5.9 °C 36.5 °F /  2.5 °C 29.95 in /  1014.1 hPa SSE 10.0 mph /  16.1 km/h 16.0 mph /  25.7 km/h 79 % 0.00 in /  0 mm 21 W/m2
16:05 42.6 °F /  5.9 °C 36.5 °F /  2.5 °C 29.95 in /  1014.1 hPa SE 10.0 mph /  16.1 km/h 16.0 mph /  25.7 km/h 79 % 0.00 in /  0 mm 21 W/m2
16:15 42.6 °F /  5.9 °C 36.5 °F /  2.5 °C 29.95 in /  1014.1 hPa SE 10.0 mph /  16.1 km/h 11.0 mph /  17.7 km/h 79 % 0.00 in /  0 mm 26 W/m2
16:20 42.5 °F /  5.8 °C 36.4 °F /  2.4 °C 29.95 in /  1014.1 hPa SSE 10.0 mph /  16.1 km/h 10.0 mph /  16.1 km/h 79 % 0.00 in /  0 mm 23 W/m2
16:25 42.5 °F /  5.8 °C 36.1 °F /  2.3 °C 29.95 in /  1014.1 hPa SSE 11.0 mph /  17.7 km/h 11.0 mph /  17.7 km/h 78 % 0.00 in /  0 mm 18 W/m2
16:35 42.4 °F /  5.8 °C 36.3 °F /  2.4 °C 29.95 in /  1014.1 hPa SE 9.0 mph /  14.5 km/h 10.0 mph /  16.1 km/h 79 % 0.00 in /  0 mm 9 W/m2
16:40 42.4 °F /  5.8 °C 36.7 °F /  2.6 °C 29.94 in /  1013.8 hPa SSE 8.0 mph /  12.9 km/h 8.0 mph /  12.9 km/h 80 % 0.00 in /  0 mm 7 W/m2
16:45 42.3 °F /  5.7 °C 36.9 °F /  2.7 °C 29.94 in /  1013.8 hPa SE 7.0 mph /  11.3 km/h 8.0 mph /  12.9 km/h 81 % 0.00 in /  0 mm 5 W/m2
16:50 42.2 °F /  5.7 °C 37.4 °F /  3 °C 29.94 in /  1013.8 hPa SE 7.0 mph /  11.3 km/h 9.0 mph /  14.5 km/h 83 % 0.00 in /  0 mm 0 W/m2
16:55 42.1 °F /  5.6 °C 37.3 °F /  2.9 °C 29.94 in /  1013.8 hPa ESE 9.0 mph /  14.5 km/h 9.0 mph /  14.5 km/h 83 % 0.00 in /  0 mm 0 W/m2
17:05 41.9 °F /  5.5 °C 37.4 °F /  3 °C 29.94 in /  1013.8 hPa SE 10.0 mph /  16.1 km/h 10.0 mph /  16.1 km/h 84 % 0.00 in /  0 mm 0 W/m2
17:10 41.8 °F /  5.4 °C 37.6 °F /  3.1 °C 29.94 in /  1013.8 hPa SE 10.0 mph /  16.1 km/h 18.0 mph /  29 km/h 85 % 0.00 in /  0 mm 0 W/m2
17:15 41.7 °F /  5.4 °C 37.8 °F /  3.2 °C 29.94 in /  1013.8 hPa SSE 9.0 mph /  14.5 km/h 18.0 mph /  29 km/h 86 % 0.00 in /  0 mm 0 W/m2
17:20 41.6 °F /  5.3 °C 37.7 °F /  3.2 °C 29.93 in /  1013.4 hPa SSE 10.0 mph /  16.1 km/h 10.0 mph /  16.1 km/h 86 % 0.00 in /  0 mm 0 W/m2
17:25 41.4 °F /  5.2 °C 37.8 °F /  3.2 °C 29.94 in /  1013.8 hPa SE 10.0 mph /  16.1 km/h 13.0 mph /  20.9 km/h 87 % 0.00 in /  0 mm 0 W/m2
17:35 41.1 °F /  5.1 °C 38.1 °F /  3.4 °C 29.94 in /  1013.8 hPa South 10.0 mph /  16.1 km/h 10.0 mph /  16.1 km/h 89 % 0.00 in /  0 mm 0 W/m2
17:40 41.0 °F /  5 °C 38.0 °F /  3.3 °C 29.93 in /  1013.4 hPa SE 10.0 mph /  16.1 km/h 12.0 mph /  19.3 km/h 89 % 0.00 in /  0 mm 0 W/m2
17:45 40.8 °F /  4.9 °C 37.8 °F /  3.2 °C 29.94 in /  1013.8 hPa South 10.0 mph /  16.1 km/h 12.0 mph /  19.3 km/h 89 % 0.00 in /  0 mm 0 W/m2
17:50 40.7 °F /  4.8 °C 38.0 °F /  3.3 °C 29.94 in /  1013.8 hPa SSE 8.0 mph /  12.9 km/h 11.0 mph /  17.7 km/h 90 % 0.00 in /  0 mm 0 W/m2
17:55 40.5 °F /  4.7 °C 37.8 °F /  3.2 °C 29.94 in /  1013.8 hPa SSE 9.0 mph /  14.5 km/h 12.0 mph /  19.3 km/h 90 % 0.00 in /  0 mm 0 W/m2
18:00 40.3 °F /  4.6 °C 37.6 °F /  3.1 °C 29.94 in /  1013.8 hPa South 11.0 mph /  17.7 km/h 12.0 mph /  19.3 km/h 90 % 0.05 in /  1.27 mm 0 W/m2
18:10 40.0 °F /  4.4 °C 37.3 °F /  2.9 °C 29.93 in /  1013.4 hPa SE 10.0 mph /  16.1 km/h 10.0 mph /  16.1 km/h 90 % 0.05 in /  1.27 mm 0 W/m2
18:15 39.9 °F /  4.4 °C 37.2 °F /  2.9 °C 29.93 in /  1013.4 hPa SSE 8.0 mph /  12.9 km/h 10.0 mph /  16.1 km/h 90 % 0.04 in /  1.02 mm 0 W/m2
18:20 39.7 °F /  4.3 °C 37.0 °F /  2.8 °C 29.93 in /  1013.4 hPa SE 9.0 mph /  14.5 km/h 10.0 mph /  16.1 km/h 90 % 0.00 in /  0 mm 0 W/m2
18:25 39.6 °F /  4.2 °C 37.2 °F /  2.9 °C 29.93 in /  1013.4 hPa SSE 10.0 mph /  16.1 km/h 12.0 mph /  19.3 km/h 91 % 0.00 in /  0 mm 0 W/m2
18:30 39.4 °F /  4.1 °C 37.0 °F /  2.8 °C 29.93 in /  1013.4 hPa South 11.0 mph /  17.7 km/h 11.0 mph /  17.7 km/h 91 % 0.00 in /  0 mm 0 W/m2
18:40 39.2 °F /  4 °C 36.8 °F /  2.7 °C 29.93 in /  1013.4 hPa SE 11.0 mph /  17.7 km/h 11.0 mph /  17.7 km/h 91 % 0.00 in /  0 mm 0 W/m2
18:45 38.9 °F /  3.8 °C 36.8 °F /  2.7 °C 29.92 in /  1013.1 hPa SE 11.0 mph /  17.7 km/h 13.0 mph /  20.9 km/h 92 % 0.00 in /  0 mm 0 W/m2
18:50 38.8 °F /  3.8 °C 36.7 °F /  2.6 °C 29.92 in /  1013.1 hPa SSE 12.0 mph /  19.3 km/h 12.0 mph /  19.3 km/h 92 % 0.00 in /  0 mm 0 W/m2
18:55 38.5 °F /  3.6 °C 36.4 °F /  2.4 °C 29.92 in /  1013.1 hPa SE 10.0 mph /  16.1 km/h 13.0 mph /  20.9 km/h 92 % 0.00 in /  0 mm 0 W/m2
19:00 38.4 °F /  3.6 °C 36.3 °F /  2.4 °C 29.92 in /  1013.1 hPa SE 10.0 mph /  16.1 km/h 11.0 mph /  17.7 km/h 92 % 0.00 in /  0 mm 0 W/m2
19:05 38.3 °F /  3.5 °C 36.5 °F /  2.5 °C 29.92 in /  1013.1 hPa SSE 10.0 mph /  16.1 km/h 14.0 mph /  22.5 km/h 93 % 0.00 in /  0 mm 0 W/m2
19:15 38.1 °F /  3.4 °C 36.3 °F /  2.4 °C 29.92 in /  1013.1 hPa SSE 10.0 mph /  16.1 km/h 11.0 mph /  17.7 km/h 93 % 0.07 in /  1.78 mm 0 W/m2
19:20 38.1 °F /  3.4 °C 36.3 °F /  2.4 °C 29.92 in /  1013.1 hPa SE 10.0 mph /  16.1 km/h 10.0 mph /  16.1 km/h 93 % 0.05 in /  1.27 mm 0 W/m2
19:25 38.1 °F /  3.4 °C 36.5 °F /  2.5 °C 29.92 in /  1013.1 hPa SE 10.0 mph /  16.1 km/h 10.0 mph /  16.1 km/h 94 % 0.05 in /  1.27 mm 0 W/m2
19:45 38.1 °F /  3.4 °C 36.5 °F /  2.5 °C 29.91 in /  1012.8 hPa SE 12.0 mph /  19.3 km/h 12.0 mph /  19.3 km/h 94 % 0.04 in /  1.02 mm 0 W/m2
19:50 38.1 °F /  3.4 °C 36.5 °F /  2.5 °C 29.90 in /  1012.4 hPa SSE 11.0 mph /  17.7 km/h 12.0 mph /  19.3 km/h 94 % 0.00 in /  0 mm 0 W/m2
20:00 38.1 °F /  3.4 °C 36.5 °F /  2.5 °C 29.90 in /  1012.4 hPa SE 11.0 mph /  17.7 km/h 12.0 mph /  19.3 km/h 94 % 0.00 in /  0 mm 0 W/m2
20:05 38.1 °F /  3.4 °C 36.5 °F /  2.5 °C 29.90 in /  1012.4 hPa SE 11.0 mph /  17.7 km/h 12.0 mph /  19.3 km/h 94 % 0.06 in /  1.52 mm 0 W/m2
20:10 38.0 °F /  3.3 °C 36.4 °F /  2.4 °C 29.90 in /  1012.4 hPa SSE 12.0 mph /  19.3 km/h 12.0 mph /  19.3 km/h 94 % 0.07 in /  1.78 mm 0 W/m2
20:15 37.9 °F /  3.3 °C 36.3 °F /  2.4 °C 29.90 in /  1012.4 hPa SSE 13.0 mph /  20.9 km/h 16.0 mph /  25.7 km/h 94 % 0.13 in /  3.3 mm 0 W/m2
20:20 37.6 °F /  3.1 °C 36.0 °F /  2.2 °C 29.90 in /  1012.4 hPa South 15.0 mph /  24.1 km/h 18.0 mph /  29 km/h 94 % 0.11 in /  2.79 mm 0 W/m2
20:25 37.5 °F /  3.1 °C 35.9 °F /  2.2 °C 29.90 in /  1012.4 hPa SE 14.0 mph /  22.5 km/h 18.0 mph /  29 km/h 94 % 0.06 in /  1.52 mm 0 W/m2
20:35 37.5 °F /  3.1 °C 35.9 °F /  2.2 °C 29.90 in /  1012.4 hPa SE 13.0 mph /  20.9 km/h 19.0 mph /  30.6 km/h 94 % 0.00 in /  0 mm 0 W/m2
20:40 37.5 °F /  3.1 °C 35.9 °F /  2.2 °C 29.89 in /  1012.1 hPa SE 11.0 mph /  17.7 km/h 19.0 mph /  30.6 km/h 94 % 0.00 in /  0 mm 0 W/m2
20:45 37.5 °F /  3.1 °C 35.9 °F /  2.2 °C 29.89 in /  1012.1 hPa SE 11.0 mph /  17.7 km/h 19.0 mph /  30.6 km/h 94 % 0.00 in /  0 mm 0 W/m2
20:50 37.5 °F /  3.1 °C 35.9 °F /  2.2 °C 29.89 in /  1012.1 hPa SE 11.0 mph /  17.7 km/h 19.0 mph /  30.6 km/h 94 % 0.00 in /  0 mm 0 W/m2
21:00 37.5 °F /  3.1 °C 36.2 °F /  2.3 °C 29.89 in /  1012.1 hPa SE 12.0 mph /  19.3 km/h 12.0 mph /  19.3 km/h 95 % 0.00 in /  0 mm 0 W/m2
21:05 37.5 °F /  3.1 °C 36.2 °F /  2.3 °C 29.89 in /  1012.1 hPa SE 9.0 mph /  14.5 km/h 19.0 mph /  30.6 km/h 95 % 0.00 in /  0 mm 0 W/m2
21:10 37.4 °F /  3 °C 36.1 °F /  2.3 °C 29.88 in /  1011.7 hPa ESE 9.0 mph /  14.5 km/h 19.0 mph /  30.6 km/h 95 % 0.10 in /  2.54 mm 0 W/m2
21:20 37.4 °F /  3 °C 36.1 °F /  2.3 °C 29.88 in /  1011.7 hPa SSE 11.0 mph /  17.7 km/h 19.0 mph /  30.6 km/h 95 % 0.05 in /  1.27 mm 0 W/m2
21:25 37.2 °F /  2.9 °C 35.9 °F /  2.2 °C 29.89 in /  1012.1 hPa SSE 11.0 mph /  17.7 km/h 19.0 mph /  30.6 km/h 95 % 0.05 in /  1.27 mm 0 W/m2
21:30 37.1 °F /  2.8 °C 35.8 °F /  2.1 °C 29.89 in /  1012.1 hPa SE 12.0 mph /  19.3 km/h 12.0 mph /  19.3 km/h 95 % 0.14 in /  3.56 mm 0 W/m2
21:40 36.9 °F /  2.7 °C 35.6 °F /  2 °C 29.88 in /  1011.7 hPa ESE 12.0 mph /  19.3 km/h 19.0 mph /  30.6 km/h 95 % 0.08 in /  2.03 mm 0 W/m2
21:45 37.0 °F /  2.8 °C 35.7 °F /  2.1 °C 29.88 in /  1011.7 hPa SSW 12.0 mph /  19.3 km/h 19.0 mph /  30.6 km/h 95 % 0.05 in /  1.27 mm 0 W/m2
21:50 37.0 °F /  2.8 °C 35.7 °F /  2.1 °C 29.88 in /  1011.7 hPa SE 11.0 mph /  17.7 km/h 19.0 mph /  30.6 km/h 95 % 0.00 in /  0 mm 0 W/m2
21:55 37.0 °F /  2.8 °C 35.7 °F /  2.1 °C 29.88 in /  1011.7 hPa South 10.0 mph /  16.1 km/h 19.0 mph /  30.6 km/h 95 % 0.00 in /  0 mm 0 W/m2
22:00 37.1 °F /  2.8 °C 35.8 °F /  2.1 °C 29.88 in /  1011.7 hPa ESE 9.0 mph /  14.5 km/h 9.0 mph /  14.5 km/h 95 % 0.00 in /  0 mm 0 W/m2
22:05 37.1 °F /  2.8 °C 35.8 °F /  2.1 °C 29.88 in /  1011.7 hPa SE 9.0 mph /  14.5 km/h 10.0 mph /  16.1 km/h 95 % 0.00 in /  0 mm 0 W/m2
22:15 37.2 °F /  2.9 °C 36.2 °F /  2.3 °C 29.87 in /  1011.4 hPa ESE 10.0 mph /  16.1 km/h 19.0 mph /  30.6 km/h 96 % 0.00 in /  0 mm 0 W/m2
22:20 37.2 °F /  2.9 °C 36.2 °F /  2.3 °C 29.86 in /  1011.1 hPa SE 10.0 mph /  16.1 km/h 10.0 mph /  16.1 km/h 96 % 0.00 in /  0 mm 0 W/m2
22:25 37.2 °F /  2.9 °C 36.2 °F /  2.3 °C 29.86 in /  1011.1 hPa SSE 12.0 mph /  19.3 km/h 15.0 mph /  24.1 km/h 96 % 0.00 in /  0 mm 0 W/m2
22:30 37.3 °F /  2.9 °C 36.3 °F /  2.4 °C 29.86 in /  1011.1 hPa SSE 12.0 mph /  19.3 km/h 12.0 mph /  19.3 km/h 96 % 0.00 in /  0 mm 0 W/m2
22:35 37.3 °F /  2.9 °C 36.3 °F /  2.4 °C 29.86 in /  1011.1 hPa SE 11.0 mph /  17.7 km/h 16.0 mph /  25.7 km/h 96 % 0.00 in /  0 mm 0 W/m2
22:45 37.2 °F /  2.9 °C 36.2 °F /  2.3 °C 29.85 in /  1010.7 hPa SSE 12.0 mph /  19.3 km/h 19.0 mph /  30.6 km/h 96 % 0.00 in /  0 mm 0 W/m2
22:50 37.2 °F /  2.9 °C 36.2 °F /  2.3 °C 29.86 in /  1011.1 hPa SSE 11.0 mph /  17.7 km/h 19.0 mph /  30.6 km/h 96 % 0.00 in /  0 mm 0 W/m2
22:55 37.2 °F /  2.9 °C 36.2 °F /  2.3 °C 29.86 in /  1011.1 hPa ESE 10.0 mph /  16.1 km/h 19.0 mph /  30.6 km/h 96 % 0.00 in /  0 mm 0 W/m2
23:00 37.3 °F /  2.9 °C 36.3 °F /  2.4 °C 29.86 in /  1011.1 hPa SSE 9.0 mph /  14.5 km/h 9.0 mph /  14.5 km/h 96 % 0.00 in /  0 mm 0 W/m2
23:05 37.3 °F /  2.9 °C 36.3 °F /  2.4 °C 29.86 in /  1011.1 hPa SE 9.0 mph /  14.5 km/h 11.0 mph /  17.7 km/h 96 % 0.00 in /  0 mm 0 W/m2
23:10 37.4 °F /  3 °C 36.4 °F /  2.4 °C 29.85 in /  1010.7 hPa ESE 10.0 mph /  16.1 km/h 10.0 mph /  16.1 km/h 96 % 0.00 in /  0 mm 0 W/m2
23:20 37.6 °F /  3.1 °C 36.6 °F /  2.6 °C 29.85 in /  1010.7 hPa SE 10.0 mph /  16.1 km/h 10.0 mph /  16.1 km/h 96 % 0.00 in /  0 mm 0 W/m2
23:25 37.7 °F /  3.2 °C 36.9 °F /  2.7 °C 29.85 in /  1010.7 hPa SE 10.0 mph /  16.1 km/h 19.0 mph /  30.6 km/h 97 % 0.00 in /  0 mm 0 W/m2
23:30 37.8 °F /  3.2 °C 37.0 °F /  2.8 °C 29.85 in /  1010.7 hPa ESE 9.0 mph /  14.5 km/h 9.0 mph /  14.5 km/h 97 % 0.00 in /  0 mm 0 W/m2
23:35 37.8 °F /  3.2 °C 37.0 °F /  2.8 °C 29.85 in /  1010.7 hPa SSE 9.0 mph /  14.5 km/h 19.0 mph /  30.6 km/h 97 % 0.00 in /  0 mm 0 W/m2
23:40 37.9 °F /  3.3 °C 37.1 °F /  2.8 °C 29.86 in /  1011.1 hPa SSE 8.0 mph /  12.9 km/h 19.0 mph /  30.6 km/h 97 % 0.00 in /  0 mm 0 W/m2
23:50 38.0 °F /  3.3 °C 37.2 °F /  2.9 °C 29.86 in /  1011.1 hPa ESE 8.0 mph /  12.9 km/h 19.0 mph /  30.6 km/h 97 % 0.00 in /  0 mm 0 W/m2
23:55 38.0 °F /  3.3 °C 37.2 °F /  2.9 °C 29.85 in /  1010.7 hPa South 8.0 mph /  12.9 km/h 19.0 mph /  30.6 km/h 97 % 0.00 in /  0 mm 0 W/m2
Delerius-Weather
Compliments of Weather Underground - 2 mb

Data updates at regular intervals.